KHEZ

Hardy-Anders Field Natchez-Adams County Airport

Natchez, Mississippi, USA
METAR KHEZ 182256Z AUTO 19006KT 10SM CLR 33/24 A2994 RMK AO2 LTG DSNT E SLP138 T03280244
Observed Flight Rules
Aug-18 @ 22:56 UTC (50 minutes ago) Visual Flight Rules
Wind Visibility Clouds
190° at 6 knots 10 miles
  • Clear skies
Temperatures Readings
Current 33°C / 91°F
Dewpoint 24°C / 75°F
Humidity 59%
Altimeter 29.94" Hg
Pressure 1013.8 hPa
Elevation 83
METAR KHEZ 182256Z AUTO 19006KT 10SM CLR 33/24 A2994 RMK AO2 LTG DSNT E SLP138 T03280244
Observed Flight Rules
Aug-18 @ 22:56 UTC
(50 minutes ago)
VFR
Wind Visibility
190° at 6 knots 10 miles
Clouds
  • Clear skies
Temperature Dewpoint
33°C / 91°F 24°C / 75°F
Humidity Altimeter Pressure
59% 29.94" Hg 1013.8 hPa